createdAt,value
2023-03-20T00:00:41.856Z,37.00
2023-03-20T00:01:41.867Z,40.20
2023-03-20T00:02:41.858Z,41.40
2023-03-20T00:03:41.896Z,41.50
2023-03-20T00:04:41.845Z,39.60
2023-03-20T00:05:41.832Z,38.80
2023-03-20T00:06:41.786Z,39.30
2023-03-20T00:07:41.809Z,42.20
2023-03-20T00:08:41.795Z,39.00
2023-03-20T00:09:41.775Z,39.00
2023-03-20T00:10:41.760Z,41.20
2023-03-20T00:11:41.762Z,41.40
2023-03-20T00:12:41.730Z,39.90
2023-03-20T00:13:41.777Z,41.60
2023-03-20T00:14:41.701Z,39.70
2023-03-20T00:15:41.755Z,43.00
2023-03-20T00:16:41.675Z,43.60
2023-03-20T00:17:41.690Z,42.60
2023-03-20T00:18:41.656Z,39.80
2023-03-20T00:19:41.699Z,41.20
2023-03-20T00:20:41.651Z,41.60
2023-03-20T00:21:41.673Z,42.10
2023-03-20T00:22:41.610Z,39.20
2023-03-20T00:23:41.640Z,42.30
2023-03-20T00:24:41.670Z,42.00
2023-03-20T00:25:41.610Z,39.20
2023-03-20T00:26:41.598Z,40.70
2023-03-20T00:27:41.586Z,41.90
2023-03-20T00:28:41.549Z,40.70
2023-03-20T00:29:41.561Z,41.30
2023-03-20T00:30:41.551Z,41.60
2023-03-20T00:31:41.606Z,42.60
2023-03-20T00:32:41.553Z,39.00
2023-03-20T00:33:41.522Z,40.80
2023-03-20T00:34:41.507Z,44.70
2023-03-20T00:35:41.577Z,40.90
2023-03-20T00:36:41.471Z,39.40
2023-03-20T00:37:41.471Z,43.00
2023-03-20T00:38:41.441Z,41.40
2023-03-20T00:39:41.459Z,43.90
2023-03-20T00:40:41.423Z,41.50
2023-03-20T00:41:41.580Z,39.70
2023-03-20T00:42:41.395Z,40.80
2023-03-20T00:43:41.416Z,41.20
2023-03-20T00:44:42.482Z,42.00
2023-03-20T00:45:41.398Z,42.40
2023-03-20T00:46:41.428Z,42.60
2023-03-20T00:47:41.390Z,44.00
2023-03-20T00:48:41.351Z,41.40
2023-03-20T00:49:41.358Z,42.60
2023-03-20T00:50:41.346Z,43.10
2023-03-20T00:51:41.332Z,46.60
2023-03-20T00:52:41.313Z,43.70
2023-03-20T00:53:41.313Z,43.50
2023-03-20T00:54:41.300Z,44.10
2023-03-20T00:55:41.297Z,41.80
2023-03-20T00:56:41.256Z,41.20
2023-03-20T00:57:41.282Z,41.20
2023-03-20T00:58:41.236Z,40.60
2023-03-20T00:59:41.238Z,39.90
2023-03-20T01:00:41.267Z,42.60
2023-03-20T01:01:41.268Z,41.00
2023-03-20T01:02:41.196Z,46.60
2023-03-20T01:03:41.233Z,41.70
2023-03-20T01:04:41.176Z,43.80
2023-03-20T01:05:41.191Z,43.50
2023-03-20T01:06:41.182Z,43.10
2023-03-20T01:07:41.161Z,44.10
2023-03-20T01:08:41.154Z,43.40
2023-03-20T01:09:41.146Z,40.50
2023-03-20T01:10:41.102Z,42.30
2023-03-20T01:11:41.125Z,44.90
2023-03-20T01:12:41.077Z,45.30
2023-03-20T01:13:41.092Z,43.60
2023-03-20T01:14:41.095Z,46.00
2023-03-20T01:15:41.054Z,47.30
2023-03-20T01:16:41.166Z,49.50
2023-03-20T01:17:41.015Z,52.20
2023-03-20T01:18:41.040Z,51.50
2023-03-20T01:19:41.011Z,56.30
2023-03-20T01:20:41.031Z,63.40
2023-03-20T01:21:40.987Z,66.20
2023-03-20T01:22:41.001Z,70.30
2023-03-20T01:23:40.975Z,83.60
2023-03-20T01:24:40.972Z,80.10
2023-03-20T01:25:40.958Z,81.30
2023-03-20T01:26:40.968Z,80.00
2023-03-20T01:27:40.929Z,82.90
2023-03-20T01:28:40.933Z,85.60
2023-03-20T01:29:40.916Z,77.80
2023-03-20T01:30:40.932Z,81.10
2023-03-20T01:31:40.910Z,76.40
2023-03-20T01:32:40.952Z,72.80
2023-03-20T01:33:40.858Z,76.80
2023-03-20T01:34:40.865Z,70.70
2023-03-20T01:35:40.896Z,72.80
2023-03-20T01:36:40.862Z,75.90
2023-03-20T01:37:40.806Z,75.20
2023-03-20T01:38:40.818Z,69.00
2023-03-20T01:39:40.805Z,68.20
2023-03-20T01:40:40.796Z,73.90
2023-03-20T01:41:40.786Z,71.20
2023-03-20T01:42:40.799Z,75.70
2023-03-20T01:43:40.738Z,77.00
2023-03-20T01:44:40.757Z,72.00
2023-03-20T01:45:40.748Z,72.70
2023-03-20T01:46:40.735Z,72.80
2023-03-20T01:47:40.718Z,75.30
2023-03-20T01:48:40.723Z,80.90
2023-03-20T01:49:40.681Z,73.40
2023-03-20T01:50:40.691Z,78.40
2023-03-20T01:51:40.662Z,73.70
2023-03-20T01:52:40.717Z,75.10
2023-03-20T01:53:40.637Z,74.40
2023-03-20T01:54:40.646Z,71.70
2023-03-20T01:55:40.629Z,75.80
2023-03-20T01:56:40.609Z,72.30
2023-03-20T01:57:40.646Z,74.30
2023-03-20T01:58:40.621Z,73.80
2023-03-20T01:59:40.568Z,71.90
2023-03-20T02:00:40.588Z,73.80
2023-03-20T02:01:40.576Z,77.40
2023-03-20T02:02:40.585Z,73.00
2023-03-20T02:03:40.560Z,70.90
2023-03-20T02:04:40.563Z,72.00
2023-03-20T02:05:40.534Z,76.00
2023-03-20T02:06:40.529Z,69.80
2023-03-20T02:07:40.489Z,69.10
2023-03-20T02:08:40.514Z,71.60
2023-03-20T02:09:40.514Z,72.70
2023-03-20T02:10:40.503Z,66.80
2023-03-20T02:11:40.445Z,67.40
2023-03-20T02:12:40.460Z,65.10
2023-03-20T02:13:40.458Z,66.30
2023-03-20T02:14:40.477Z,64.40
2023-03-20T02:15:40.406Z,66.70
2023-03-20T02:16:40.469Z,64.00
2023-03-20T02:17:40.384Z,62.10
2023-03-20T02:18:40.392Z,58.70
2023-03-20T02:19:40.361Z,60.80
2023-03-20T02:20:40.401Z,63.30
2023-03-20T02:21:40.360Z,58.20
2023-03-20T02:22:40.354Z,56.50
2023-03-20T02:23:40.332Z,57.30
2023-03-20T02:24:40.369Z,54.00
2023-03-20T02:25:40.320Z,54.70
2023-03-20T02:26:40.310Z,60.00
2023-03-20T02:27:40.305Z,56.00
2023-03-20T02:28:40.305Z,55.30
2023-03-20T02:29:40.255Z,54.90
2023-03-20T02:30:40.361Z,55.70
2023-03-20T02:31:40.256Z,56.20
2023-03-20T02:32:40.263Z,55.00
2023-03-20T02:33:40.214Z,56.20
2023-03-20T02:34:40.228Z,57.80
2023-03-20T02:35:40.244Z,59.30
2023-03-20T02:36:40.213Z,56.30
2023-03-20T02:37:40.176Z,56.60
2023-03-20T02:38:40.176Z,54.60
2023-03-20T02:39:40.145Z,56.20
2023-03-20T02:40:40.159Z,56.80
2023-03-20T02:41:40.187Z,57.70
2023-03-20T02:42:40.143Z,55.90
2023-03-20T02:43:40.119Z,61.40
2023-03-20T02:44:40.115Z,58.20
2023-03-20T02:45:40.077Z,56.80
2023-03-20T02:46:40.097Z,59.50
2023-03-20T02:47:40.082Z,56.60
2023-03-20T02:48:40.097Z,57.90
2023-03-20T02:49:40.049Z,57.10
2023-03-20T02:50:40.061Z,57.70
2023-03-20T02:51:40.030Z,56.80
2023-03-20T02:52:40.028Z,54.60
2023-03-20T02:53:40.016Z,52.00
2023-03-20T02:54:40.017Z,52.70
2023-03-20T02:55:39.990Z,50.60
2023-03-20T02:56:39.997Z,51.50
2023-03-20T02:57:39.956Z,49.10
2023-03-20T02:58:39.986Z,50.80
2023-03-20T02:59:39.960Z,50.00
2023-03-20T03:00:39.951Z,48.70
2023-03-20T03:01:39.917Z,49.20
2023-03-20T03:02:39.954Z,50.70
2023-03-20T03:03:39.911Z,47.10
2023-03-20T03:04:39.910Z,46.90
2023-03-20T03:05:39.881Z,49.60
2023-03-20T03:06:39.885Z,47.00
2023-03-20T03:07:39.847Z,46.30
2023-03-20T03:08:39.901Z,47.00
2023-03-20T03:09:39.854Z,45.00
2023-03-20T03:10:39.858Z,44.60
2023-03-20T03:11:39.811Z,43.70
2023-03-20T03:12:39.824Z,47.10
2023-03-20T03:13:39.799Z,46.50
2023-03-20T03:14:39.798Z,45.80
2023-03-20T03:15:39.831Z,45.80
2023-03-20T03:16:39.778Z,45.20
2023-03-20T03:17:39.762Z,46.60
2023-03-20T03:18:39.756Z,42.30
2023-03-20T03:19:39.726Z,44.80
2023-03-20T03:20:39.767Z,48.00
2023-03-20T03:21:39.697Z,48.50
2023-03-20T03:22:39.727Z,48.00
2023-03-20T03:23:39.681Z,46.30
2023-03-20T03:24:41.711Z,47.40
2023-03-20T03:25:39.668Z,45.70
2023-03-20T03:26:39.676Z,45.70
2023-03-20T03:27:39.634Z,45.70
2023-03-20T03:28:39.647Z,44.70
2023-03-20T03:29:39.627Z,47.40
2023-03-20T03:30:39.649Z,46.00
2023-03-20T03:31:39.682Z,46.40
2023-03-20T03:32:39.627Z,49.20
2023-03-20T03:33:39.578Z,48.00
2023-03-20T03:34:39.600Z,48.80
2023-03-20T03:35:39.703Z,46.30
2023-03-20T03:36:39.628Z,50.80
2023-03-20T03:37:39.547Z,48.20
2023-03-20T03:38:39.540Z,49.80
2023-03-20T03:39:39.516Z,49.80
2023-03-20T03:40:39.521Z,47.70
2023-03-20T03:41:39.493Z,49.60
2023-03-20T03:42:39.519Z,49.80
2023-03-20T03:43:39.486Z,49.10
2023-03-20T03:44:39.472Z,50.10
2023-03-20T03:45:39.460Z,46.40
2023-03-20T03:46:39.477Z,48.20
2023-03-20T03:47:39.426Z,52.20
2023-03-20T03:48:39.461Z,51.40
2023-03-20T03:49:39.396Z,50.50
2023-03-20T03:50:39.416Z,51.30
2023-03-20T03:51:39.375Z,48.60
2023-03-20T03:52:39.422Z,49.60
2023-03-20T03:53:39.424Z,52.50
2023-03-20T03:54:39.369Z,52.80
2023-03-20T03:55:39.731Z,51.40
2023-03-20T03:56:39.359Z,51.50
2023-03-20T03:57:39.321Z,51.80
2023-03-20T03:58:39.349Z,51.30
2023-03-20T03:59:39.342Z,51.80
2023-03-20T04:00:39.321Z,52.10
2023-03-20T04:01:39.345Z,53.10
2023-03-20T04:02:39.298Z,52.10
2023-03-20T04:03:39.256Z,52.20
2023-03-20T04:04:39.346Z,52.90
2023-03-20T04:05:39.251Z,52.70
2023-03-20T04:06:39.274Z,53.00
2023-03-20T04:07:39.211Z,53.90
2023-03-20T04:08:39.245Z,52.50
2023-03-20T04:09:39.212Z,51.20
2023-03-20T04:10:39.225Z,46.20
2023-03-20T04:11:39.171Z,48.50
2023-03-20T04:12:39.223Z,47.70
2023-03-20T04:13:39.154Z,46.20
2023-03-20T04:14:39.159Z,44.40
2023-03-20T04:15:39.159Z,43.50
2023-03-20T04:16:39.167Z,43.30
2023-03-20T04:17:39.107Z,44.60
2023-03-20T04:18:39.142Z,45.00
2023-03-20T04:19:39.096Z,44.20
2023-03-20T04:20:39.107Z,46.20
2023-03-20T04:21:39.081Z,47.10
2023-03-20T04:22:39.103Z,47.90
2023-03-20T04:23:39.088Z,45.40
2023-03-20T04:24:39.057Z,44.90
2023-03-20T04:25:39.037Z,47.30
2023-03-20T04:26:39.072Z,46.30
2023-03-20T04:27:39.000Z,48.80
2023-03-20T04:28:39.019Z,46.60
2023-03-20T04:29:39.397Z,50.90
2023-03-20T04:30:39.025Z,49.80
2023-03-20T04:31:39.039Z,49.70
2023-03-20T04:32:39.009Z,52.00
2023-03-20T04:33:38.941Z,50.70
2023-03-20T04:34:38.992Z,51.50
2023-03-20T04:35:39.409Z,48.40
2023-03-20T04:36:38.941Z,47.60
2023-03-20T04:37:38.933Z,47.00
2023-03-20T04:38:38.916Z,43.70
2023-03-20T04:39:38.885Z,44.30
2023-03-20T04:40:38.896Z,42.90
2023-03-20T04:41:38.854Z,40.10
2023-03-20T04:42:38.866Z,42.10
2023-03-20T04:43:38.855Z,40.70
2023-03-20T04:44:38.861Z,40.00
2023-03-20T04:45:39.243Z,40.40
2023-03-20T04:46:38.822Z,40.60
2023-03-20T04:47:38.789Z,40.50
2023-03-20T04:48:38.843Z,39.20
2023-03-20T04:49:38.781Z,41.00
2023-03-20T04:50:38.778Z,40.80
2023-03-20T04:51:38.744Z,40.10
2023-03-20T04:52:38.758Z,39.80
2023-03-20T04:53:38.724Z,38.00
2023-03-20T04:54:38.875Z,39.00
2023-03-20T04:55:38.725Z,36.10
2023-03-20T04:56:38.722Z,35.50
2023-03-20T04:57:38.682Z,34.00
2023-03-20T04:58:38.699Z,32.10
2023-03-20T04:59:38.906Z,33.80
2023-03-20T05:00:38.688Z,36.40
2023-03-20T05:01:38.654Z,35.10
2023-03-20T05:02:38.658Z,35.70
2023-03-20T05:03:38.620Z,32.10
2023-03-20T05:04:38.639Z,33.10
2023-03-20T05:05:38.853Z,32.70
2023-03-20T05:06:38.620Z,31.80
2023-03-20T05:07:38.592Z,33.50
2023-03-20T05:08:38.597Z,31.50
2023-03-20T05:09:38.569Z,30.80
2023-03-20T05:10:38.837Z,32.20
2023-03-20T05:11:38.529Z,30.40
2023-03-20T05:12:38.560Z,30.10
2023-03-20T05:13:38.522Z,31.00
2023-03-20T05:14:38.519Z,28.10
2023-03-20T05:15:38.510Z,33.00
2023-03-20T05:16:38.540Z,30.60
2023-03-20T05:17:38.470Z,29.20
2023-03-20T05:18:38.496Z,28.90
2023-03-20T05:19:38.451Z,27.90
2023-03-20T05:20:38.464Z,27.30
2023-03-20T05:21:38.468Z,28.20
2023-03-20T05:22:38.447Z,28.60
2023-03-20T05:23:38.405Z,29.10
2023-03-20T05:24:38.421Z,29.40
2023-03-20T05:25:38.388Z,28.60
2023-03-20T05:26:38.394Z,27.70
2023-03-20T05:27:39.231Z,27.60
2023-03-20T05:28:38.379Z,28.70
2023-03-20T05:29:38.338Z,29.80
2023-03-20T05:30:38.415Z,29.70
2023-03-20T05:31:38.336Z,30.30
2023-03-20T05:32:38.355Z,28.10
2023-03-20T05:33:38.398Z,28.70
2023-03-20T05:34:38.286Z,29.30
2023-03-20T05:35:38.789Z,28.30
2023-03-20T05:36:38.313Z,27.50
2023-03-20T05:37:38.275Z,29.50
2023-03-20T05:38:38.259Z,28.00
2023-03-20T05:39:38.260Z,29.50
2023-03-20T05:40:38.219Z,26.20
2023-03-20T05:41:38.241Z,28.40
2023-03-20T05:42:38.207Z,26.60
2023-03-20T05:43:38.232Z,26.20
2023-03-20T05:44:38.184Z,26.50
2023-03-20T05:45:38.187Z,25.80
2023-03-20T05:46:38.181Z,25.90
2023-03-20T05:47:38.169Z,27.00
2023-03-20T05:48:38.135Z,27.10
2023-03-20T05:49:38.159Z,27.40
2023-03-20T05:50:38.113Z,28.40
2023-03-20T05:51:38.128Z,27.80
2023-03-20T05:52:38.096Z,24.30
2023-03-20T05:53:38.115Z,25.70
2023-03-20T05:54:38.093Z,26.50
2023-03-20T05:55:38.455Z,26.00
2023-03-20T05:56:38.065Z,26.20
2023-03-20T05:57:38.066Z,28.10
2023-03-20T05:58:38.037Z,27.10
2023-03-20T05:59:38.060Z,24.70
2023-03-20T06:00:38.024Z,25.10
2023-03-20T06:01:38.023Z,25.90
2023-03-20T06:02:38.188Z,26.00
2023-03-20T06:03:38.093Z,23.80
2023-03-20T06:04:37.967Z,26.30
2023-03-20T06:05:38.310Z,25.00
2023-03-20T06:06:38.138Z,26.50
2023-03-20T06:07:37.963Z,26.70
2023-03-20T06:08:37.941Z,23.70
2023-03-20T06:09:37.934Z,23.70
2023-03-20T06:10:37.907Z,24.60
2023-03-20T06:11:37.927Z,24.70
2023-03-20T06:12:37.884Z,27.50
2023-03-20T06:13:37.928Z,27.90
2023-03-20T06:14:37.861Z,24.90
2023-03-20T06:15:38.438Z,24.10
2023-03-20T06:16:37.866Z,25.60
2023-03-20T06:17:37.860Z,27.90
2023-03-20T06:18:37.820Z,25.80
2023-03-20T06:19:37.829Z,24.50
2023-03-20T06:20:37.798Z,24.70
2023-03-20T06:21:37.815Z,26.40
2023-03-20T06:22:37.789Z,25.00
2023-03-20T06:23:37.793Z,27.80
2023-03-20T06:24:37.755Z,26.00
2023-03-20T06:25:38.078Z,25.90
2023-03-20T06:26:37.739Z,25.20
2023-03-20T06:27:37.771Z,27.50
2023-03-20T06:28:37.712Z,26.60
2023-03-20T06:29:37.723Z,29.50
2023-03-20T06:30:37.690Z,27.20
2023-03-20T06:31:37.742Z,25.90
2023-03-20T06:32:37.728Z,27.60
2023-03-20T06:33:37.692Z,27.60
2023-03-20T06:34:37.654Z,28.90
2023-03-20T06:35:38.157Z,28.60
2023-03-20T06:36:37.624Z,30.60
2023-03-20T06:37:37.645Z,29.60
2023-03-20T06:38:37.627Z,30.60
2023-03-20T06:39:37.620Z,30.20
2023-03-20T06:40:37.588Z,28.50
2023-03-20T06:41:37.593Z,30.50
2023-03-20T06:42:37.555Z,30.70
2023-03-20T06:43:37.572Z,29.70
2023-03-20T06:44:37.549Z,31.70
2023-03-20T06:45:37.901Z,29.30
2023-03-20T06:46:37.558Z,31.60
2023-03-20T06:47:37.527Z,32.40
2023-03-20T06:48:37.494Z,31.50
2023-03-20T06:49:37.519Z,29.30
2023-03-20T06:50:37.472Z,30.50
2023-03-20T06:51:37.486Z,30.80
2023-03-20T06:52:37.456Z,34.00
2023-03-20T06:53:37.469Z,31.80
2023-03-20T06:54:37.431Z,31.40
2023-03-20T06:55:37.782Z,30.50
2023-03-20T06:56:37.413Z,29.40
2023-03-20T06:57:37.427Z,31.90
2023-03-20T06:58:37.388Z,29.80
2023-03-20T06:59:37.742Z,30.60
2023-03-20T07:00:37.411Z,31.90
2023-03-20T07:01:37.470Z,31.60
2023-03-20T07:02:37.367Z,29.40
2023-03-20T07:03:37.378Z,34.00
2023-03-20T07:04:37.497Z,28.50
2023-03-20T07:05:37.624Z,29.10
2023-03-20T07:06:37.333Z,30.80
2023-03-20T07:07:37.328Z,28.70
2023-03-20T07:08:37.291Z,28.30
2023-03-20T07:09:37.313Z,28.90
2023-03-20T07:10:37.266Z,27.40
2023-03-20T07:11:37.293Z,31.00
2023-03-20T07:12:37.244Z,31.30
2023-03-20T07:13:37.268Z,31.00
2023-03-20T07:14:37.224Z,31.70
2023-03-20T07:15:37.559Z,30.40
2023-03-20T07:16:37.242Z,32.20
2023-03-20T07:17:37.235Z,32.10
2023-03-20T07:18:37.180Z,33.70
2023-03-20T07:19:38.187Z,31.50
2023-03-20T07:20:37.161Z,33.90
2023-03-20T07:21:37.180Z,29.70
2023-03-20T07:22:37.180Z,30.80
2023-03-20T07:23:37.175Z,28.10
2023-03-20T07:24:37.121Z,31.20
2023-03-20T07:25:42.926Z,28.90
2023-03-20T07:26:37.104Z,29.50
2023-03-20T07:27:37.109Z,29.40
2023-03-20T07:28:37.093Z,28.50
2023-03-20T07:29:37.108Z,29.50
2023-03-20T07:30:37.061Z,28.00
2023-03-20T07:31:37.115Z,29.30
2023-03-20T07:32:37.924Z,29.40
2023-03-20T07:33:37.069Z,29.40
2023-03-20T07:34:37.014Z,27.50
2023-03-20T07:35:37.415Z,30.10
2023-03-20T07:36:37.007Z,29.00
2023-03-20T07:37:37.035Z,28.80
2023-03-20T07:38:36.969Z,28.90
2023-03-20T07:39:36.993Z,28.90
2023-03-20T07:40:36.985Z,27.30
2023-03-20T07:41:36.958Z,30.10
2023-03-20T07:42:36.978Z,28.60
2023-03-20T07:43:36.936Z,27.00
2023-03-20T07:44:36.934Z,28.40
2023-03-20T07:45:37.201Z,27.80
2023-03-20T07:46:36.887Z,27.50
2023-03-20T07:47:36.968Z,29.60
2023-03-20T07:48:36.872Z,28.40
2023-03-20T07:49:36.869Z,28.40
2023-03-20T07:50:36.873Z,27.10
2023-03-20T07:51:36.845Z,26.80
2023-03-20T07:52:36.821Z,27.30
2023-03-20T07:53:36.838Z,26.00
2023-03-20T07:54:36.831Z,25.90
2023-03-20T07:55:37.260Z,26.20
2023-03-20T07:56:36.770Z,25.10
2023-03-20T07:57:36.781Z,25.40
2023-03-20T07:58:36.759Z,23.60
2023-03-20T07:59:36.761Z,26.60
2023-03-20T08:00:36.731Z,24.70
2023-03-20T08:01:36.841Z,24.70
2023-03-20T08:02:36.791Z,26.90
2023-03-20T08:03:36.818Z,23.60
2023-03-20T08:04:36.688Z,25.80
2023-03-20T08:05:36.946Z,23.40
2023-03-20T08:06:36.695Z,25.60
2023-03-20T08:07:36.676Z,24.30
2023-03-20T08:08:36.641Z,25.60
2023-03-20T08:09:36.675Z,24.80
2023-03-20T08:10:36.620Z,23.80
2023-03-20T08:11:36.642Z,23.60
2023-03-20T08:12:36.608Z,23.70
2023-03-20T08:13:36.616Z,21.50
2023-03-20T08:14:36.590Z,21.60
2023-03-20T08:15:36.823Z,20.90
2023-03-20T08:16:36.615Z,22.10
2023-03-20T08:17:36.603Z,21.30
2023-03-20T08:18:36.548Z,23.00
2023-03-20T08:19:36.657Z,21.80
2023-03-20T08:20:36.515Z,19.80
2023-03-20T08:21:36.588Z,19.70
2023-03-20T08:22:36.494Z,20.70
2023-03-20T08:23:36.528Z,19.50
2023-03-20T08:24:36.490Z,19.50
2023-03-20T08:25:36.722Z,20.60
2023-03-20T08:26:36.455Z,21.70
2023-03-20T08:27:36.467Z,20.20
2023-03-20T08:28:46.960Z,19.50
2023-03-20T08:29:36.450Z,19.50
2023-03-20T08:30:36.430Z,19.20
2023-03-20T08:31:36.422Z,18.80
2023-03-20T08:32:36.412Z,19.20
2023-03-20T08:33:36.406Z,20.00
2023-03-20T08:34:36.389Z,18.40
2023-03-20T08:35:36.395Z,17.00
2023-03-20T08:36:36.349Z,18.50
2023-03-20T08:37:36.366Z,18.60
2023-03-20T08:38:36.341Z,17.70
2023-03-20T08:39:36.351Z,18.70
2023-03-20T08:40:36.304Z,20.70
2023-03-20T08:41:36.313Z,18.20
2023-03-20T08:42:36.287Z,18.50
2023-03-20T08:43:36.298Z,17.10
2023-03-20T08:44:36.261Z,17.50
2023-03-20T08:45:36.587Z,17.90
2023-03-20T08:46:36.330Z,17.10
2023-03-20T08:47:36.245Z,18.30
2023-03-20T08:48:36.240Z,17.90
2023-03-20T08:49:36.240Z,15.80
2023-03-20T08:50:36.222Z,18.70
2023-03-20T08:51:36.230Z,17.50
2023-03-20T08:52:36.166Z,17.20
2023-03-20T08:53:36.187Z,17.30
2023-03-20T08:54:36.160Z,17.00
2023-03-20T08:55:36.493Z,17.80
2023-03-20T08:56:36.136Z,16.90
2023-03-20T08:57:36.141Z,16.30
2023-03-20T08:58:36.106Z,17.20
2023-03-20T08:59:36.161Z,15.40
2023-03-20T09:00:36.088Z,17.50
2023-03-20T09:01:48.660Z,17.70
2023-03-20T09:02:36.249Z,18.10
2023-03-20T09:03:36.079Z,17.00
2023-03-20T09:04:36.051Z,17.50
2023-03-20T09:05:36.347Z,15.30
2023-03-20T09:06:36.036Z,17.00
2023-03-20T09:07:36.090Z,16.70
2023-03-20T09:08:35.995Z,17.50
2023-03-20T09:09:36.006Z,16.70
2023-03-20T09:10:35.986Z,16.10
2023-03-20T09:11:35.989Z,16.70
2023-03-20T09:12:36.021Z,17.20
2023-03-20T09:13:35.973Z,16.80
2023-03-20T09:14:35.928Z,16.70
2023-03-20T09:15:36.397Z,17.20
2023-03-20T09:16:35.941Z,16.40
2023-03-20T09:17:35.921Z,16.70
2023-03-20T09:18:35.900Z,16.70
2023-03-20T09:19:35.897Z,15.70
2023-03-20T09:20:36.126Z,16.70
2023-03-20T09:21:35.888Z,16.40
2023-03-20T09:22:35.847Z,16.00
2023-03-20T09:23:35.919Z,15.30
2023-03-20T09:24:35.820Z,17.60
2023-03-20T09:25:36.140Z,17.10
2023-03-20T09:26:35.798Z,16.60
2023-03-20T09:27:35.817Z,17.00
2023-03-20T09:28:35.780Z,17.70
2023-03-20T09:29:35.863Z,15.60
2023-03-20T09:30:36.025Z,15.90
2023-03-20T09:31:35.844Z,17.40
2023-03-20T09:32:35.826Z,16.40
2023-03-20T09:33:35.750Z,16.40
2023-03-20T09:34:35.748Z,16.60
2023-03-20T09:35:35.745Z,18.80
2023-03-20T09:36:35.692Z,15.80
2023-03-20T09:37:35.711Z,15.50
2023-03-20T09:38:35.668Z,15.00
2023-03-20T09:39:35.688Z,15.10
2023-03-20T09:40:35.947Z,15.00
2023-03-20T09:41:45.576Z,15.80
2023-03-20T09:42:35.636Z,15.20
2023-03-20T09:43:35.644Z,13.90
2023-03-20T09:44:35.622Z,16.50
2023-03-20T09:45:35.651Z,16.60
2023-03-20T09:46:35.630Z,16.80
2023-03-20T09:47:35.573Z,16.80
2023-03-20T09:48:35.596Z,15.70
2023-03-20T09:49:35.554Z,13.70
2023-03-20T09:50:35.771Z,15.60
2023-03-20T09:51:35.548Z,14.00
2023-03-20T09:52:35.556Z,16.90
2023-03-20T09:53:35.511Z,15.90
2023-03-20T09:54:47.302Z,20.40
2023-03-20T09:55:35.931Z,15.70
2023-03-20T09:56:35.536Z,15.00
2023-03-20T09:57:35.474Z,16.60
2023-03-20T09:58:35.478Z,15.80
2023-03-20T09:59:35.444Z,16.10
2023-03-20T10:00:35.822Z,17.10
2023-03-20T10:01:37.152Z,15.30
2023-03-20T10:02:36.007Z,16.10
2023-03-20T10:03:35.396Z,15.70
2023-03-20T10:04:35.461Z,17.30
2023-03-20T10:05:35.614Z,15.90
2023-03-20T10:06:35.397Z,16.80
2023-03-20T10:07:35.379Z,17.40
2023-03-20T10:08:35.368Z,17.50
2023-03-20T10:09:35.345Z,16.60
2023-03-20T10:10:35.683Z,17.30
2023-03-20T10:11:35.313Z,17.20
2023-03-20T10:12:35.324Z,17.20
2023-03-20T10:13:35.308Z,16.50
2023-03-20T10:14:35.316Z,16.90
2023-03-20T10:15:35.268Z,16.90
2023-03-20T10:16:35.336Z,16.50
2023-03-20T10:17:35.251Z,17.50
2023-03-20T10:18:35.290Z,17.70
2023-03-20T10:19:35.225Z,16.90
2023-03-20T10:20:35.765Z,16.30
2023-03-20T10:21:35.203Z,16.70
2023-03-20T10:22:35.219Z,17.00
2023-03-20T10:23:35.186Z,16.20
2023-03-20T10:24:35.205Z,16.20
2023-03-20T10:25:35.195Z,16.30
2023-03-20T10:26:35.195Z,17.70
2023-03-20T10:27:35.153Z,17.50
2023-03-20T10:28:35.154Z,16.50
2023-03-20T10:29:35.149Z,16.60
2023-03-20T10:30:35.491Z,17.10
2023-03-20T10:31:35.151Z,17.70
2023-03-20T10:32:35.223Z,17.50
2023-03-20T10:33:35.076Z,17.20
2023-03-20T10:34:35.096Z,17.00
2023-03-20T10:35:35.096Z,16.60
2023-03-20T10:36:35.066Z,18.40
2023-03-20T10:37:35.031Z,18.00
2023-03-20T10:38:35.046Z,16.40
2023-03-20T10:39:35.011Z,17.50
2023-03-20T10:40:35.367Z,16.80
2023-03-20T10:41:34.988Z,16.40
2023-03-20T10:42:35.021Z,16.40
2023-03-20T10:43:38.188Z,17.30
2023-03-20T10:44:34.981Z,18.80
2023-03-20T10:45:34.956Z,16.00
2023-03-20T10:46:35.001Z,18.20
2023-03-20T10:47:34.950Z,18.10
2023-03-20T10:48:34.953Z,17.20
2023-03-20T10:49:34.902Z,16.90
2023-03-20T10:50:35.158Z,18.20
2023-03-20T10:51:34.921Z,17.60
2023-03-20T10:52:34.899Z,18.60
2023-03-20T10:53:34.866Z,18.80
2023-03-20T10:54:34.872Z,17.10
2023-03-20T10:55:34.876Z,17.70
2023-03-20T10:56:34.848Z,17.80
2023-03-20T10:57:34.823Z,17.40
2023-03-20T10:58:34.830Z,17.70
2023-03-20T10:59:34.788Z,16.80
2023-03-20T11:00:35.193Z,16.50
2023-03-20T11:01:35.921Z,16.80
2023-03-20T11:02:34.808Z,17.90
2023-03-20T11:03:34.751Z,15.70
2023-03-20T11:04:34.839Z,17.10
2023-03-20T11:05:34.756Z,16.10
2023-03-20T11:06:34.743Z,17.50
2023-03-20T11:07:34.715Z,17.20
2023-03-20T11:08:34.737Z,18.10
2023-03-20T11:09:34.690Z,16.70
2023-03-20T11:10:35.037Z,17.20
2023-03-20T11:11:34.679Z,17.60
2023-03-20T11:12:34.683Z,16.80
2023-03-20T11:13:34.661Z,15.90
2023-03-20T11:14:34.660Z,15.60
2023-03-20T11:15:34.626Z,14.70
2023-03-20T11:16:34.681Z,16.70
2023-03-20T11:17:34.606Z,16.90
2023-03-20T11:18:34.617Z,15.00
2023-03-20T11:19:34.596Z,16.10
2023-03-20T11:20:34.971Z,14.50
2023-03-20T11:21:34.579Z,14.90
2023-03-20T11:22:34.574Z,14.00
2023-03-20T11:23:34.546Z,15.70
2023-03-20T11:24:34.579Z,14.00
2023-03-20T11:25:34.535Z,16.20
2023-03-20T11:26:34.541Z,17.20
2023-03-20T11:27:34.515Z,16.30
2023-03-20T11:28:34.530Z,13.70
2023-03-20T11:29:34.494Z,14.40
2023-03-20T11:30:34.806Z,14.10
2023-03-20T11:31:34.539Z,16.00
2023-03-20T11:32:34.569Z,13.00
2023-03-20T11:33:34.430Z,14.10
2023-03-20T11:34:34.455Z,14.10
2023-03-20T11:35:34.449Z,14.90
2023-03-20T11:36:34.424Z,13.20
2023-03-20T11:37:34.388Z,13.70
2023-03-20T11:38:34.400Z,12.40
2023-03-20T11:39:34.364Z,14.20
2023-03-20T11:40:34.807Z,13.10
2023-03-20T11:41:34.350Z,12.60
2023-03-20T11:42:34.352Z,14.20
2023-03-20T11:43:34.324Z,13.20
2023-03-20T11:44:34.332Z,13.40
2023-03-20T11:45:34.376Z,13.30
2023-03-20T11:46:34.348Z,12.00
2023-03-20T11:47:34.278Z,13.60
2023-03-20T11:48:34.302Z,12.40
2023-03-20T11:49:34.253Z,11.70
2023-03-20T11:50:34.521Z,13.30
2023-03-20T11:51:34.230Z,13.30
2023-03-20T11:52:34.268Z,13.10
2023-03-20T11:53:34.213Z,12.30
2023-03-20T11:54:34.218Z,13.20
2023-03-20T11:55:34.190Z,12.80
2023-03-20T11:56:34.209Z,12.10
2023-03-20T11:57:34.212Z,11.60
2023-03-20T11:58:34.179Z,14.60
2023-03-20T11:59:34.168Z,13.30
2023-03-20T12:00:34.421Z,13.30
2023-03-20T12:01:34.167Z,11.50
2023-03-20T12:02:34.167Z,11.60
2023-03-20T12:03:34.333Z,13.30
2023-03-20T12:04:34.119Z,11.50
2023-03-20T12:05:34.101Z,13.50
2023-03-20T12:06:34.096Z,11.90
2023-03-20T12:07:34.080Z,11.90
2023-03-20T12:08:34.105Z,14.20
2023-03-20T12:09:34.043Z,12.10
2023-03-20T12:10:34.404Z,11.90
2023-03-20T12:11:34.022Z,12.10
2023-03-20T12:12:34.042Z,12.80
2023-03-20T12:13:34.004Z,10.40
2023-03-20T12:14:34.020Z,11.80
2023-03-20T12:15:34.023Z,12.40
2023-03-20T12:16:34.012Z,10.90
2023-03-20T12:17:33.956Z,11.70
2023-03-20T12:18:33.966Z,11.10
2023-03-20T12:19:33.946Z,12.10
2023-03-20T12:20:34.154Z,12.70
2023-03-20T12:21:33.927Z,12.60
2023-03-20T12:22:33.923Z,11.20
2023-03-20T12:23:33.893Z,12.20
2023-03-20T12:24:33.907Z,12.10
2023-03-20T12:25:33.897Z,11.30
2023-03-20T12:26:33.886Z,11.00
2023-03-20T12:27:34.858Z,9.80
2023-03-20T12:28:33.861Z,11.70
2023-03-20T12:29:33.827Z,9.70
2023-03-20T12:30:34.144Z,12.60
2023-03-20T12:31:33.935Z,10.10
2023-03-20T12:32:33.855Z,11.50
2023-03-20T12:33:33.782Z,12.40
2023-03-20T12:34:33.805Z,13.00
2023-03-20T12:35:33.790Z,11.60
2023-03-20T12:36:33.815Z,12.40
2023-03-20T12:37:33.753Z,10.50
2023-03-20T12:38:33.765Z,13.10
2023-03-20T12:39:33.722Z,11.70
2023-03-20T12:40:34.028Z,11.10
2023-03-20T12:41:33.733Z,12.10
2023-03-20T12:42:33.707Z,11.00
2023-03-20T12:43:33.674Z,9.70
2023-03-20T12:44:33.684Z,12.10
2023-03-20T12:45:33.666Z,11.50
2023-03-20T12:46:33.738Z,13.30
2023-03-20T12:47:33.652Z,10.10
2023-03-20T12:48:33.645Z,10.10
2023-03-20T12:49:33.612Z,9.70
2023-03-20T12:50:33.951Z,9.50
2023-03-20T12:51:33.591Z,11.20
2023-03-20T12:52:33.599Z,10.50